Weather reports worldwide

Advertisment
Carrion de los Condes, Spain (8068): temperature & dewpoint: 14.01.2021 14:00:00 - 20.01.2021 14:00:00 (CET)Carrion de los Condes, Spain (8068): wind speed & gusts: 14.01.2021 14:00:00 - 20.01.2021 14:00:00 (CET)Carrion de los Condes, Spain (8068): wind direction: 14.01.2021 14:00:00 - 20.01.2021 14:00:00 (CET)Carrion de los Condes, Spain (8068): visibility: 14.01.2021 14:00:00 - 20.01.2021 14:00:00 (CET)Carrion de los Condes, Spain (8068): sunshine duration: 14.01.2021 14:00:00 - 20.01.2021 14:00:00 (CET)Carrion de los Condes, Spain (8068): precipitation: 14.01.2021 14:00:00 - 20.01.2021 14:00:00 (CET)
Date & Time tt [°C] td [°C] ff [km/h] ff [kn] fx [km/h] fx [kn] dd vv [km] sd [min] rr [mm]
20.01.2021 14:00:00 7,5 4,3 18 10 40 22 SSW 20 0 0,0
20.01.2021 13:00:00 6,8 3,4 18 10 41 22 SSW 20 0 -
20.01.2021 12:00:00 5,4 2,5 16 9 44 24 SSW 20 0 0,0
20.01.2021 11:00:00 4,7 2,5 19 10 46 25 SSW 20 0 0,0
20.01.2021 10:00:00 4,3 2,1 22 12 47 26 SSW 20 0 0,0
20.01.2021 09:00:00 2,9 1,7 12 6 29 16 S 20 0 0,2
20.01.2021 08:00:00 2,0 - 5 3 15 8 SSE 11 0 0,0
20.01.2021 07:00:00 1,4 - 7 4 24 13 S 7 0 -
20.01.2021 06:00:00 1,3 - 12 6 27 15 S 6 0 0,0
20.01.2021 05:00:00 0,9 - 7 4 18 10 S 7 0 0,0
20.01.2021 04:00:00 0,2 - 5 3 16 9 S 6 0 0,0
20.01.2021 03:00:00 -0,6 - 1 1 13 7 NE 3,0 0 0,0
20.01.2021 02:00:00 -1,1 - 2 1 10 5 ESE 3,1 0 0,0
20.01.2021 01:00:00 -1,1 - 2 1 11 6 E 2,7 0 -
20.01.2021 00:00:00 -0,9 - 1 1 14 8 ENE 2,8 0 0,0
19.01.2021 23:00:00 -0,8 - 1 1 14 8 W 1,8 0 0,0
19.01.2021 22:00:00 -0,2 - 1 1 4 2 NNW 2,1 0 0,0
19.01.2021 21:00:00 0,7 - 1 1 14 8 NE 3,5 0 0,0
19.01.2021 20:00:00 1,5 - 1 1 5 3 NE 1,6 0 0,0
19.01.2021 19:00:00 2,2 - 3 1 7 4 SSW 7 0 -
19.01.2021 18:00:00 3,0 - 1 1 6 4 WNW 11 0 0,0
19.01.2021 17:00:00 3,5 - 3 1 7 4 S 17 9 0,0
19.01.2021 16:00:00 3,6 - 3 1 14 8 S 16 54 0,0
19.01.2021 15:00:00 2,8 - 2 1 7 4 SSE 13 42 0,0
19.01.2021 14:00:00 0,9 - 4 2 15 8 NW 3,9 0 0,0
19.01.2021 13:00:00 -0,6 - 3 2 18 10 N 0,2 0 -
19.01.2021 12:00:00 -1,4 - 1 1 16 8 E 0,2 0 0,0
19.01.2021 11:00:00 -2,1 - 2 1 16 9 ENE 0,2 0 0,0
19.01.2021 10:00:00 -3,0 - 4 2 19 10 NE 0,2 0 0,0
19.01.2021 09:00:00 -3,2 - 1 1 17 9 NE 0,2 0 0,0
19.01.2021 08:00:00 -3,1 - 3 1 18 10 N 0,1 0 0,0
19.01.2021 07:00:00 -2,7 - 3 2 17 9 ENE 0,2 0 -
19.01.2021 06:00:00 -2,4 - 3 2 19 10 N 0,2 0 0,0
19.01.2021 05:00:00 -2,1 - 3 1 17 9 NNE 0,4 0 0,0
19.01.2021 04:00:00 -1,7 - 4 2 16 9 NE 0,2 0 0,0
19.01.2021 03:00:00 -1,6 - 4 2 16 9 E 0,2 0 0,0
19.01.2021 02:00:00 -1,3 - 3 2 19 10 NE 0,2 0 0,0
19.01.2021 01:00:00 -1,0 - 5 3 17 9 NNE 0,2 0 -
19.01.2021 00:00:00 -0,1 - 3 2 17 9 NNE 0,2 0 0,0
18.01.2021 23:00:00 0,0 - 5 3 21 11 NE 0,2 0 0,0
18.01.2021 22:00:00 0,0 - 2 1 16 9 E 0,2 0 0,0
18.01.2021 21:00:00 0,1 - 3 2 7 4 NE 0,1 0 0,0
18.01.2021 20:00:00 0,3 - 3 1 16 9 ENE 0,2 0 0,0
18.01.2021 19:00:00 1,3 - 2 1 18 10 ENE 0,1 0 -
18.01.2021 18:00:00 2,4 - 2 1 14 8 SE 0,2 0 0,0
18.01.2021 17:00:00 2,8 - 2 1 5 3 SSW 1,5 0 0,0
18.01.2021 16:00:00 2,8 - 2 1 10 5 E 4,2 0 0,0
18.01.2021 15:00:00 2,9 - 4 2 13 7 WSW 10 0 0,0
18.01.2021 14:00:00 2,7 - 2 1 6 3 WSW 14 0 0,0
18.01.2021 13:00:00 1,6 - 3 2 14 8 NW 4,9 0 -
18.01.2021 12:00:00 1,2 - 2 1 12 7 SSW - 0 0,0
18.01.2021 11:00:00 0,6 - 4 2 8 4 E 2,2 0 0,0
18.01.2021 10:00:00 -0,4 - 1 1 14 8 W 0,6 0 0,0
18.01.2021 09:00:00 -1,0 - 1 1 3 2 NNW 0,2 0 0,0
18.01.2021 08:00:00 -1,2 - 1 1 5 3 SW 0,2 0 0,0
18.01.2021 07:00:00 -1,2 - 4 2 16 9 SSW 0,4 0 -
18.01.2021 06:00:00 -2,0 - 1 1 12 7 NNW 0,2 0 0,0
18.01.2021 05:00:00 -3,0 - 2 1 16 8 NNW 0,2 0 0,0
18.01.2021 04:00:00 -3,9 - 2 1 14 7 NNW 0,4 0 0,0
18.01.2021 03:00:00 -4,6 - 2 1 14 8 N 20 0 0,0
18.01.2021 02:00:00 -4,1 - 3 2 17 9 NE 13 0 0,0
18.01.2021 01:00:00 -3,7 - 2 1 11 6 ENE 0,6 0 -
18.01.2021 00:00:00 -3,8 - 4 2 19 10 NE 0,2 0 0,0
17.01.2021 23:00:00 -3,5 - 4 2 18 10 E 0,2 0 0,0
17.01.2021 22:00:00 -3,2 - 3 2 8 5 ENE 0,4 0 0,0
17.01.2021 21:00:00 -2,7 - 4 2 8 4 NNE 0,3 0 0,0
17.01.2021 20:00:00 -2,0 - 1 1 9 5 SSE 0,2 0 0,0
17.01.2021 19:00:00 -2,0 - 2 1 18 10 E 0,3 0 -
17.01.2021 18:00:00 -1,7 - 2 1 8 4 NE 0,7 0 0,0
17.01.2021 17:00:00 -1,2 - 3 1 9 5 NE 7 0 0,0
17.01.2021 16:00:00 -1,5 - 3 1 19 10 E 8 0 0,0
17.01.2021 15:00:00 -1,8 - 3 2 8 5 ENE 12 0 0,0
17.01.2021 14:00:00 -2,3 - 4 2 16 9 E 10 0 0,0
17.01.2021 13:00:00 -2,7 - 2 1 8 5 E 9 0 -
17.01.2021 12:00:00 -3,6 - 1 1 16 9 ENE 1,6 0 0,0
17.01.2021 11:00:00 -4,0 - 3 2 8 4 E 1,0 0 0,0
17.01.2021 10:00:00 -4,4 - 1 1 8 4 SSW 0,8 0 0,0
17.01.2021 09:00:00 -4,7 - 3 2 6 4 NNW 0,5 0 0,0
17.01.2021 08:00:00 -4,4 - 2 1 6 4 WSW 0,6 0 0,0
17.01.2021 07:00:00 -4,2 - 3 1 14 8 SSW 0,6 0 -
17.01.2021 06:00:00 -4,1 - 0 0 6 3 N 0,4 0 0,0
17.01.2021 05:00:00 -4,0 - 1 1 6 3 W 0,4 0 0,0
17.01.2021 04:00:00 -3,9 - 3 2 12 6 SSW 0,5 0 0,0
17.01.2021 03:00:00 -3,8 - 1 1 5 3 SE 0,6 0 0,0
17.01.2021 02:00:00 -3,8 - 1 1 8 4 ESE 0,5 0 0,0
17.01.2021 01:00:00 -3,8 - 3 2 9 5 E 0,3 0 -
17.01.2021 00:00:00 -3,9 - 2 1 14 7 W 0,3 0 0,0
16.01.2021 23:00:00 -3,2 - 2 1 16 9 SSE 0,4 0 0,0
16.01.2021 22:00:00 -2,6 - 3 2 6 3 E 0,3 0 0,0
16.01.2021 21:00:00 -2,5 - 1 1 6 3 SSW 0,3 0 0,0
16.01.2021 20:00:00 -2,4 - 3 2 15 8 WSW 0,4 0 0,0
16.01.2021 19:00:00 -1,8 - 3 2 9 5 SW 0,7 0 -
16.01.2021 18:00:00 -1,7 - 5 3 14 8 WSW 1,1 0 0,0
16.01.2021 17:00:00 -1,2 - 6 3 14 8 WSW 0,6 0 0,0
16.01.2021 16:00:00 -1,1 - 5 3 14 7 WSW 1,7 0 0,0
16.01.2021 15:00:00 -1,5 - 7 4 15 8 SW 1,2 0 0,0
16.01.2021 14:00:00 -2,0 - 6 3 14 7 SW 0,7 0 0,0
16.01.2021 13:00:00 -3,1 - 4 2 10 5 SSW 0,5 0 -
16.01.2021 12:00:00 -4,3 - 3 2 6 4 WNW 0,3 0 0,0
16.01.2021 11:00:00 -5,1 - 2 1 16 9 SSW 0,5 0 0,0
16.01.2021 10:00:00 -5,8 -6,0 2 1 13 7 NNW 0,5 0 0,0
16.01.2021 09:00:00 -6,1 -6,7 3 2 11 6 SW 0,4 0 0,0
16.01.2021 08:00:00 -6,2 -7,1 3 1 14 7 NNE 0,5 0 0,0
16.01.2021 07:00:00 -6,2 -7,1 2 1 6 3 N 0,5 0 -
16.01.2021 06:00:00 -5,6 -6,4 3 1 6 3 NNE 0,2 0 0,0
16.01.2021 05:00:00 -5,0 - 3 1 11 6 ENE 0,3 0 0,0
16.01.2021 04:00:00 -5,3 -5,4 2 1 17 9 ENE 0,3 0 0,0
16.01.2021 03:00:00 -5,2 -5,4 3 1 8 4 E 0,3 0 0,0
16.01.2021 02:00:00 -4,9 - 2 1 5 3 WSW 0,2 0 0,0
16.01.2021 01:00:00 -4,6 - 0 0 6 4 N 0,2 0 -
16.01.2021 00:00:00 -4,5 - 2 1 14 8 ENE 0,2 0 0,0
15.01.2021 23:00:00 -4,1 - 3 1 5 3 E 0,2 0 0,0
15.01.2021 22:00:00 -3,6 - 1 1 4 2 ENE 0,2 0 0,0
15.01.2021 21:00:00 -3,0 - 2 1 5 3 E 0,1 0 0,0
15.01.2021 20:00:00 -2,3 - 1 1 7 4 WSW 0,2 0 0,0
15.01.2021 19:00:00 -1,5 - 2 1 7 4 WNW 0,1 0 -
15.01.2021 18:00:00 -0,1 - 3 1 6 4 W 0,2 0 0,0
15.01.2021 17:00:00 1,0 - 3 2 11 6 W 0,4 0 0,0
15.01.2021 16:00:00 0,9 - 6 4 14 8 SW 0,4 7 0,0
15.01.2021 15:00:00 1,2 - 6 3 13 7 S 3,2 47 0,0
15.01.2021 14:00:00 -0,6 - 4 2 11 6 WSW 1,2 1 0,0
15.01.2021 13:00:00 -2,4 - 3 1 11 6 NW 1,3 0 -
15.01.2021 12:00:00 -3,8 - 4 2 9 5 WSW 0,8 0 0,0
15.01.2021 11:00:00 -4,7 - 3 2 7 4 ENE 0,8 0 0,0
15.01.2021 10:00:00 -5,8 -6,0 3 1 7 4 W 0,3 0 0,0
15.01.2021 09:00:00 -6,0 -6,4 3 1 8 5 W 0,6 0 0,0
15.01.2021 08:00:00 -6,3 -7,1 6 3 13 7 S 0,6 0 0,0
15.01.2021 07:00:00 -6,6 -7,5 2 1 10 5 W 3,9 0 -
15.01.2021 06:00:00 -7,0 -8,2 3 2 6 3 SW 2,0 0 0,0
15.01.2021 05:00:00 -6,4 -7,5 2 1 8 4 NE 1,1 0 0,0
15.01.2021 04:00:00 -5,7 -6,0 3 2 9 5 NE 0,4 0 0,0
15.01.2021 03:00:00 -5,1 - 2 1 6 4 ENE 0,4 0 0,0
15.01.2021 02:00:00 -4,9 - 1 1 8 4 S 0,2 0 0,0
15.01.2021 01:00:00 -4,5 - 4 2 10 5 ENE 0,4 0 -
15.01.2021 00:00:00 -3,9 - 2 1 12 6 SSE 0,3 0 0,0
14.01.2021 23:00:00 -3,7 - 2 1 10 5 E 0,2 0 0,0
14.01.2021 22:00:00 -3,3 - 2 1 5 3 NNE 0,2 0 0,0
14.01.2021 21:00:00 -2,9 - 3 2 7 4 WSW 0,2 0 0,0
14.01.2021 20:00:00 -2,2 - 3 2 9 5 W 0,4 0 0,0
14.01.2021 19:00:00 -1,4 - 3 2 9 5 W 0,2 0 -
14.01.2021 18:00:00 -1,6 - 3 2 8 5 W 0,2 0 0,0
14.01.2021 17:00:00 -1,1 - 3 1 8 4 W 0,4 0 0,0
14.01.2021 16:00:00 -1,0 - 2 1 9 5 WSW 0,3 0 0,0
14.01.2021 15:00:00 -0,9 - 3 2 8 5 SSW 0,3 0 0,0
14.01.2021 14:00:00 -1,5 - 3 1 8 4 W 0,2 0 0,0

tt = temperature
td = dewpoint
ff = wind speed
fx = gusts
dd = wind direction
vv = visibility
sd = sunshine duration
rr = precipitation

Next stations